Time;durP1;ratioP1;P1;durP2;ratioP2;P2;SDS_P1;SDS_P2;PMS_P1;PMS_P2;Temp;Humidity;BMP_temperature;BMP_pressure;BME280_temperature;BME280_humidity;BME280_pressure;Samples;Min_cycle;Max_cycle;Signal;HPM_P1;HPM_P2
2022/09/25 00:01:21;;;;;;;1.92;1.67;;;8.40;99.90;;;;;;5090833;28;20069;-68
2022/09/25 00:03:46;;;;;;;8.70;4.50;;;8.40;99.90;;;;;;5097827;28;20048;-69
2022/09/25 00:06:16;;;;;;;2.03;1.75;;;8.40;99.90;;;;;;5091673;28;20730;-69
2022/09/25 00:08:42;;;;;;;2.08;1.73;;;8.30;99.90;;;;;;5100024;28;20042;-68
2022/09/25 00:11:18;;;;;;;1.20;1.10;;;8.30;99.90;;;;;;5095991;28;20441;-69
2022/09/25 00:13:46;;;;;;;16.63;5.25;;;8.30;99.90;;;;;;5104719;28;20039;-69
2022/09/25 00:16:15;;;;;;;2.35;2.05;;;8.30;99.90;;;;;;5096522;28;20093;-69
2022/09/25 00:21:32;;;;;;;4.32;1.85;;;8.20;99.90;;;;;;5092175;28;20063;-69
2022/09/25 00:24:00;;;;;;;5.53;1.50;;;8.30;99.90;;;;;;5079462;28;20054;-69
2022/09/25 00:26:28;;;;;;;4.32;1.73;;;8.10;99.90;;;;;;5104998;28;20414;-69
2022/09/25 00:28:54;;;;;;;5.38;3.08;;;8.30;99.90;;;;;;5100784;28;20090;-69
2022/09/25 00:31:23;;;;;;;12.30;5.35;;;8.10;99.90;;;;;;5097462;28;20040;-69
2022/09/25 00:33:52;;;;;;;7.57;6.03;;;8.10;99.90;;;;;;5087630;28;20037;-69
2022/09/25 00:36:19;;;;;;;11.90;5.07;;;8.10;99.90;;;;;;5090810;28;20040;-69
2022/09/25 00:38:47;;;;;;;11.95;5.80;;;8.00;99.90;;;;;;5094702;28;20051;-69
2022/09/25 00:41:17;;;;;;;;;;;8.10;99.90;;;;;;5098980;28;20047;-68
2022/09/25 00:43:49;;;;;;;8.55;2.53;;;8.10;99.90;;;;;;5096024;28;19919;-69
2022/09/25 00:46:35;;;;;;;7.88;1.40;;;8.10;99.90;;;;;;5080792;28;20055;-69
2022/09/25 00:49:22;;;;;;;6.35;3.92;;;8.10;99.90;;;;;;5106208;28;20086;-68
2022/09/25 00:51:59;;;;;;;2.65;2.40;;;8.00;99.90;;;;;;5095398;28;20044;-69
2022/09/25 00:54:29;;;;;;;10.30;4.72;;;8.00;99.90;;;;;;5099000;28;20052;-69
2022/09/25 00:56:57;;;;;;;2.88;2.03;;;8.00;99.90;;;;;;5105910;28;20059;-69
2022/09/25 00:59:29;;;;;;;2.30;2.10;;;8.00;99.90;;;;;;5097136;28;20036;-69
2022/09/25 01:01:55;;;;;;;2.83;1.85;;;7.90;99.90;;;;;;5100838;28;20044;-69
2022/09/25 01:04:22;;;;;;;1.30;1.13;;;7.90;99.90;;;;;;5100469;28;20044;-69
2022/09/25 01:06:48;;;;;;;13.70;2.33;;;7.90;99.90;;;;;;5102861;28;20047;-68
2022/09/25 01:09:15;;;;;;;15.50;6.00;;;7.80;99.90;;;;;;5102300;28;20852;-68
2022/09/25 01:11:41;;;;;;;2.95;1.90;;;7.90;99.90;;;;;;5086720;28;20159;-69
2022/09/25 01:14:08;;;;;;;15.68;6.50;;;7.90;99.90;;;;;;5091469;28;20134;-69
2022/09/25 01:16:46;;;;;;;9.05;5.45;;;7.90;99.90;;;;;;5102000;28;20447;-69
2022/09/25 01:19:14;;;;;;;4.88;2.88;;;8.00;99.90;;;;;;5102700;28;20108;-69
2022/09/25 01:21:39;;;;;;;11.93;2.58;;;7.90;99.90;;;;;;5100548;28;20056;-68
2022/09/25 01:24:27;;;;;;;3.72;2.25;;;7.90;99.90;;;;;;5103726;28;20040;-69
2022/09/25 01:27:01;;;;;;;12.33;6.53;;;8.00;99.90;;;;;;5101347;28;20054;-69
2022/09/25 01:29:44;;;;;;;6.85;4.95;;;7.90;99.90;;;;;;5098673;28;20052;-68
2022/09/25 01:32:13;;;;;;;9.60;5.13;;;7.90;99.90;;;;;;5105147;28;20454;-69
2022/09/25 01:34:56;;;;;;;10.30;5.72;;;7.90;99.90;;;;;;5103053;28;20047;-68
2022/09/25 01:37:52;;;;;;;4.43;1.80;;;7.90;99.90;;;;;;5087270;28;20100;-68
2022/09/25 01:40:41;;;;;;;7.40;2.28;;;7.90;99.90;;;;;;5064645;28;20094;-68
2022/09/25 01:43:15;;;;;;;2.92;2.00;;;7.80;99.90;;;;;;5100678;27;20092;-69
2022/09/25 01:45:54;;;;;;;14.60;6.25;;;7.80;99.90;;;;;;5100163;28;20048;-69
2022/09/25 01:48:25;;;;;;;19.52;7.20;;;7.80;99.90;;;;;;5094223;28;20066;-68
2022/09/25 01:50:57;;;;;;;3.55;2.03;;;7.80;99.90;;;;;;5099977;28;20528;-68
2022/09/25 01:53:28;;;;;;;8.65;1.88;;;7.80;99.90;;;;;;5092094;28;20035;-68
2022/09/25 01:56:00;;;;;;;9.63;5.88;;;7.70;99.90;;;;;;5097599;28;20078;-69
2022/09/25 01:58:48;;;;;;;4.90;2.75;;;7.70;99.90;;;;;;5094866;28;20057;-68
2022/09/25 02:01:37;;;;;;;2.40;1.80;;;7.70;99.90;;;;;;5101911;28;20501;-68
2022/09/25 02:04:34;;;;;;;11.15;6.45;;;7.70;99.90;;;;;;5098501;28;20037;-68
2022/09/25 02:07:04;;;;;;;4.25;1.52;;;7.70;99.90;;;;;;5092306;28;20043;-68
2022/09/25 02:09:42;;;;;;;18.00;6.30;;;7.70;99.90;;;;;;5105885;28;20995;-69
2022/09/25 02:12:16;;;;;;;4.03;1.60;;;7.60;99.90;;;;;;5097434;28;20056;-68
2022/09/25 02:15:00;;;;;;;10.50;6.05;;;7.60;99.90;;;;;;5103263;28;20297;-68
2022/09/25 02:20:31;;;;;;;2.25;1.65;;;7.60;99.90;;;;;;5108333;28;20130;-69
2022/09/25 02:23:16;;;;;;;10.85;5.53;;;7.60;99.90;;;;;;5098434;28;20078;-68
2022/09/25 02:25:48;;;;;;;4.18;1.73;;;7.60;99.90;;;;;;5102192;28;20045;-68
2022/09/25 02:28:13;;;;;;;9.82;5.15;;;7.70;99.90;;;;;;5100828;28;20067;-68
2022/09/25 02:30:39;;;;;;;6.05;4.88;;;7.60;99.90;;;;;;5111153;28;20065;-68
2022/09/25 02:33:05;;;;;;;4.97;2.33;;;7.60;99.90;;;;;;5104830;28;20043;-69
2022/09/25 02:35:32;;;;;;;2.33;2.13;;;7.60;99.90;;;;;;5096192;28;20157;-68
2022/09/25 02:37:57;;;;;;;2.85;1.60;;;7.60;99.90;;;;;;5094078;28;20516;-68
2022/09/25 02:40:53;;;;;;;7.38;1.40;;;7.40;99.90;;;;;;5089583;28;20630;-68
2022/09/25 02:43:51;;;;;;;2.15;1.52;;;7.40;99.90;;;;;;5110557;28;20173;-69
2022/09/25 02:46:50;;;;;;;10.57;5.82;;;7.40;99.90;;;;;;5100512;28;20066;-68
2022/09/25 02:49:26;;;;;;;2.78;2.22;;;7.40;99.90;;;;;;5105810;28;20049;-69
2022/09/25 02:52:05;;;;;;;12.85;6.18;;;7.40;99.90;;;;;;5101527;28;20163;-68
2022/09/25 02:54:43;;;;;;;9.90;5.35;;;7.40;99.90;;;;;;5094685;28;20642;-69
2022/09/25 02:57:16;;;;;;;11.18;5.18;;;7.40;99.90;;;;;;5097680;28;20052;-68
2022/09/25 02:59:51;;;;;;;8.15;2.67;;;7.30;99.90;;;;;;5106214;28;20055;-68
2022/09/25 03:02:19;;;;;;;3.42;1.52;;;7.40;99.90;;;;;;5100293;28;20048;-69
2022/09/25 03:04:47;;;;;;;7.45;2.28;;;7.20;99.90;;;;;;5074553;28;20048;-68
2022/09/25 03:07:13;;;;;;;3.85;2.40;;;7.20;99.90;;;;;;5096646;28;20052;-69
2022/09/25 03:09:43;;;;;;;3.10;1.83;;;7.20;99.90;;;;;;5094414;28;20050;-68
2022/09/25 03:12:09;;;;;;;3.45;1.63;;;7.20;99.90;;;;;;5094762;28;20488;-69
2022/09/25 03:14:34;;;;;;;11.48;5.82;;;7.20;99.90;;;;;;5107063;28;20087;-68
2022/09/25 03:17:04;;;;;;;4.22;3.80;;;7.40;99.90;;;;;;5101677;28;20096;-69
2022/09/25 03:19:30;;;;;;;5.60;1.92;;;7.20;99.90;;;;;;5098574;28;20144;-68
2022/09/25 03:21:55;;;;;;;11.45;5.53;;;7.20;99.90;;;;;;5100263;28;20055;-69
2022/09/25 03:24:22;;;;;;;4.78;2.58;;;7.20;99.90;;;;;;5103741;28;20083;-68
2022/09/25 03:26:47;;;;;;;12.90;5.18;;;7.20;99.90;;;;;;5096315;28;20769;-69
2022/09/25 03:29:16;;;;;;;5.25;2.05;;;7.20;99.90;;;;;;5104533;28;20061;-68
2022/09/25 03:31:42;;;;;;;2.92;2.47;;;7.10;99.90;;;;;;5096575;28;20906;-69
2022/09/25 03:34:08;;;;;;;12.13;6.00;;;7.10;99.90;;;;;;5105667;28;20055;-68
2022/09/25 03:36:35;;;;;;;2.85;2.45;;;7.40;99.90;;;;;;5109101;28;20040;-68
2022/09/25 03:39:01;;;;;;;14.52;6.50;;;7.10;99.90;;;;;;5101703;28;20043;-69
2022/09/25 03:41:30;;;;;;;14.48;6.30;;;7.20;99.90;;;;;;5107192;28;20047;-68
2022/09/25 03:43:56;;;;;;;4.07;2.03;;;7.20;99.90;;;;;;5104274;28;20032;-68
2022/09/25 03:46:24;;;;;;;1.95;1.85;;;7.10;99.90;;;;;;5100999;28;20073;-68
2022/09/25 03:48:51;;;;;;;1.98;1.88;;;7.10;99.90;;;;;;5092468;28;20068;-68
2022/09/25 03:51:18;;;;;;;2.70;2.22;;;7.10;99.90;;;;;;5099202;28;20044;-68
2022/09/25 03:53:44;;;;;;;5.18;2.08;;;7.10;99.90;;;;;;5107705;28;20051;-69
2022/09/25 03:56:13;;;;;;;15.18;6.65;;;7.00;99.90;;;;;;5092870;28;20051;-68
2022/09/25 03:58:39;;;;;;;5.15;2.33;;;7.10;99.90;;;;;;5101079;28;20027;-69
2022/09/25 04:01:05;;;;;;;2.88;1.42;;;7.10;99.90;;;;;;5089694;28;20109;-68
2022/09/25 04:03:32;;;;;;;3.72;2.53;;;7.10;99.90;;;;;;5084553;28;20040;-68
2022/09/25 04:06:03;;;;;;;3.17;2.33;;;6.90;99.90;;;;;;5105037;28;20044;-68
2022/09/25 04:08:30;;;;;;;11.68;5.82;;;7.00;99.90;;;;;;5104752;28;20082;-68
2022/09/25 04:11:00;;;;;;;27.27;3.30;;;7.00;99.90;;;;;;5079566;28;20483;-68
2022/09/25 04:13:31;;;;;;;4.00;1.85;;;7.00;99.90;;;;;;5092163;28;20052;-68
2022/09/25 04:15:58;;;;;;;12.88;6.22;;;7.00;99.90;;;;;;5099000;28;20039;-68
2022/09/25 04:18:26;;;;;;;4.70;2.00;;;7.00;99.90;;;;;;5104079;28;20047;-68
2022/09/25 04:20:51;;;;;;;2.38;1.45;;;7.00;99.90;;;;;;5097275;28;20052;-68
2022/09/25 04:23:17;;;;;;;6.38;3.42;;;7.00;99.90;;;;;;5092114;28;20036;-69
2022/09/25 04:25:44;;;;;;;6.25;3.15;;;7.00;99.90;;;;;;5097031;28;20154;-69
2022/09/25 04:28:09;;;;;;;13.85;3.45;;;7.00;99.90;;;;;;5092199;28;20055;-69
2022/09/25 04:30:35;;;;;;;11.93;5.35;;;6.90;99.90;;;;;;5100049;28;20078;-68
2022/09/25 04:35:45;;;;;;;4.72;1.20;;;7.00;99.90;;;;;;5106314;28;20044;-68
2022/09/25 04:38:11;;;;;;;7.35;2.35;;;7.00;99.90;;;;;;5098750;28;20063;-68
2022/09/25 04:40:37;;;;;;;2.80;2.22;;;6.90;99.90;;;;;;5098319;28;20040;-68
2022/09/25 04:43:07;;;;;;;12.55;6.30;;;6.90;99.90;;;;;;5088302;27;20043;-68
2022/09/25 04:45:36;;;;;;;11.80;2.35;;;6.90;99.90;;;;;;5091128;28;20031;-68
2022/09/25 04:48:03;;;;;;;5.95;2.60;;;6.90;99.90;;;;;;5098077;28;20871;-68
2022/09/25 04:50:29;;;;;;;11.07;5.72;;;6.90;99.90;;;;;;5093829;28;20040;-68
2022/09/25 04:52:59;;;;;;;2.80;2.15;;;6.90;99.90;;;;;;5107749;27;20408;-68
2022/09/25 04:55:26;;;;;;;6.85;2.88;;;6.90;99.90;;;;;;5098256;28;20051;-68
2022/09/25 04:57:57;;;;;;;11.30;3.20;;;6.90;99.90;;;;;;5104900;28;21008;-68
2022/09/25 05:00:25;;;;;;;2.47;1.52;;;6.90;99.90;;;;;;5090556;28;20040;-68
2022/09/25 05:02:51;;;;;;;4.03;2.22;;;6.80;99.90;;;;;;5101580;28;20048;-69
2022/09/25 05:05:18;;;;;;;6.43;2.22;;;6.80;99.90;;;;;;5096338;28;20040;-68
2022/09/25 05:07:54;;;;;;;3.30;2.28;;;6.80;99.90;;;;;;5102220;28;20051;-69
2022/09/25 05:10:21;;;;;;;8.73;4.97;;;6.80;99.90;;;;;;5100600;28;20559;-68
2022/09/25 05:12:47;;;;;;;3.70;1.60;;;6.80;99.90;;;;;;5095790;28;20039;-68
2022/09/25 05:15:14;;;;;;;1.50;1.40;;;6.80;99.90;;;;;;5088165;28;20145;-69
2022/09/25 05:17:39;;;;;;;4.47;2.28;;;6.80;99.90;;;;;;5089887;28;20666;-68
2022/09/25 05:20:05;;;;;;;4.38;2.35;;;6.80;99.90;;;;;;5102858;28;20118;-68
2022/09/25 05:22:31;;;;;;;11.93;6.55;;;6.80;99.90;;;;;;5095957;28;20766;-69
2022/09/25 05:24:56;;;;;;;14.55;6.05;;;6.80;99.90;;;;;;5096453;28;20040;-68
2022/09/25 05:27:23;;;;;;;5.82;2.05;;;6.80;99.90;;;;;;5099209;28;20044;-68
2022/09/25 05:29:49;;;;;;;14.63;6.57;;;6.90;99.90;;;;;;5094628;28;20870;-68
2022/09/25 05:32:16;;;;;;;8.18;1.92;;;6.80;99.90;;;;;;5092268;28;20123;-68
2022/09/25 05:34:41;;;;;;;3.90;2.03;;;6.90;99.90;;;;;;5106875;28;20420;-68
2022/09/25 05:37:07;;;;;;;1.83;1.52;;;6.80;99.90;;;;;;5105944;28;20043;-69
2022/09/25 05:39:33;;;;;;;14.70;7.00;;;6.80;99.90;;;;;;5105512;28;20039;-68
2022/09/25 05:41:58;;;;;;;4.00;2.95;;;6.90;99.90;;;;;;5093360;28;20496;-68
2022/09/25 05:44:27;;;;;;;1.38;1.10;;;6.90;99.90;;;;;;5094689;28;20039;-68
2022/09/25 05:46:55;;;;;;;;;;;6.90;99.90;;;;;;5093504;28;20133;-68
2022/09/25 05:49:22;;;;;;;12.75;6.57;;;7.00;99.90;;;;;;5103479;28;20292;-68
2022/09/25 05:51:48;;;;;;;12.68;6.18;;;7.00;99.90;;;;;;5102204;28;20040;-69
2022/09/25 05:54:14;;;;;;;7.85;2.65;;;7.20;99.90;;;;;;5098671;28;20389;-69
2022/09/25 05:56:40;;;;;;;8.02;5.25;;;7.20;99.90;;;;;;5085309;28;20058;-69
2022/09/25 05:59:05;;;;;;;6.65;2.30;;;7.30;99.90;;;;;;5098255;28;20081;-69
2022/09/25 06:01:31;;;;;;;2.92;1.67;;;7.40;99.90;;;;;;5100495;28;20632;-69
2022/09/25 06:03:56;;;;;;;3.70;1.95;;;7.50;99.90;;;;;;5099773;28;20064;-69
2022/09/25 06:06:22;;;;;;;3.63;3.00;;;7.60;99.90;;;;;;5092996;28;20607;-69
2022/09/25 06:08:48;;;;;;;15.23;6.18;;;7.70;99.90;;;;;;5102149;28;20377;-69
2022/09/25 06:11:13;;;;;;;7.25;5.57;;;7.80;99.90;;;;;;5101345;28;20039;-69
2022/09/25 06:13:39;;;;;;;4.60;2.72;;;8.00;99.90;;;;;;5103926;28;20205;-69
2022/09/25 06:16:13;;;;;;;6.88;2.25;;;8.00;99.90;;;;;;5091607;28;20056;-69
2022/09/25 06:18:39;;;;;;;7.30;3.08;;;8.10;99.90;;;;;;5082836;28;21649;-69
2022/09/25 06:21:06;;;;;;;6.93;1.85;;;8.10;99.90;;;;;;5086881;28;20048;-68
2022/09/25 06:23:31;;;;;;;2.63;1.60;;;8.20;99.90;;;;;;5088838;28;20047;-69
2022/09/25 06:26:02;;;;;;;3.17;2.20;;;8.30;99.90;;;;;;5093188;28;20049;-69
2022/09/25 06:28:28;;;;;;;8.80;5.40;;;8.20;99.90;;;;;;5090371;28;20123;-69
2022/09/25 06:30:58;;;;;;;4.68;2.63;;;8.30;99.90;;;;;;5094497;28;20079;-69
2022/09/25 06:33:23;;;;;;;1.75;1.40;;;8.40;99.90;;;;;;5093827;28;20072;-69
2022/09/25 06:35:49;;;;;;;2.13;1.95;;;8.40;99.90;;;;;;5093076;28;20360;-69
2022/09/25 06:38:15;;;;;;;3.05;1.70;;;8.40;99.90;;;;;;5096465;28;20043;-69
2022/09/25 06:40:42;;;;;;;12.23;5.05;;;8.40;99.90;;;;;;5095163;28;20175;-69
2022/09/25 06:43:15;;;;;;;4.03;3.25;;;8.50;99.90;;;;;;5095022;28;20052;-69
2022/09/25 06:45:42;;;;;;;3.20;1.73;;;8.50;99.90;;;;;;5095302;28;20036;-69
2022/09/25 06:48:14;;;;;;;11.07;5.03;;;8.60;99.90;;;;;;5093973;28;20047;-69
2022/09/25 06:50:49;;;;;;;6.78;2.15;;;8.60;99.90;;;;;;5092752;28;20051;-69
2022/09/25 06:53:17;;;;;;;12.63;5.60;;;8.70;99.90;;;;;;5096404;28;20556;-68
2022/09/25 06:55:45;;;;;;;2.35;1.60;;;8.80;99.90;;;;;;5092805;28;20054;-69
2022/09/25 06:58:15;;;;;;;12.02;6.18;;;8.90;99.90;;;;;;5095194;28;20058;-69
2022/09/25 07:00:48;;;;;;;11.68;5.07;;;8.90;99.90;;;;;;5096174;28;20150;-69
2022/09/25 07:06:01;;;;;;;10.32;5.47;;;9.20;99.90;;;;;;5101727;28;20059;-69
2022/09/25 07:08:27;;;;;;;11.15;5.70;;;9.10;99.90;;;;;;5101376;28;20051;-69
2022/09/25 07:10:54;;;;;;;4.55;2.28;;;9.20;99.90;;;;;;5100164;28;20051;-68
2022/09/25 07:13:26;;;;;;;11.83;5.37;;;9.20;99.90;;;;;;5102329;28;20043;-69
2022/09/25 07:15:57;;;;;;;19.88;4.50;;;9.30;99.90;;;;;;5100048;28;20881;-69
2022/09/25 07:18:24;;;;;;;10.27;5.45;;;9.30;99.90;;;;;;5101732;28;20063;-69
2022/09/25 07:20:51;;;;;;;15.55;4.68;;;9.40;99.90;;;;;;5099303;27;20055;-69
2022/09/25 07:23:19;;;;;;;7.53;2.83;;;9.50;99.90;;;;;;5101521;28;20055;-69
2022/09/25 07:25:46;;;;;;;14.25;5.32;;;9.60;99.90;;;;;;5101825;28;20089;-69
2022/09/25 07:28:13;;;;;;;12.23;5.72;;;9.60;99.90;;;;;;5100480;28;20043;-69
2022/09/25 07:30:41;;;;;;;6.72;2.13;;;9.60;99.90;;;;;;5100023;28;20054;-69
2022/09/25 07:33:07;;;;;;;;;;;9.80;99.90;;;;;;5100512;28;20130;-69
2022/09/25 07:35:34;;;;;;;18.60;5.32;;;9.80;99.90;;;;;;5100697;28;19981;-69
2022/09/25 07:38:00;;;;;;;3.72;1.92;;;9.90;99.90;;;;;;5099586;28;20130;-69
2022/09/25 07:40:27;;;;;;;9.35;4.47;;;10.00;99.90;;;;;;5101904;28;20078;-69
2022/09/25 07:43:00;;;;;;;17.50;4.85;;;10.20;99.90;;;;;;5102422;28;20040;-69
2022/09/25 07:45:27;;;;;;;9.82;3.80;;;10.30;99.90;;;;;;5102590;28;20052;-69
2022/09/25 07:48:01;;;;;;;7.40;4.15;;;10.50;99.90;;;;;;5100243;28;20087;-69
2022/09/25 07:50:31;;;;;;;6.28;3.67;;;10.60;99.90;;;;;;5098263;28;20040;-69
2022/09/25 07:52:57;;;;;;;15.20;4.80;;;10.70;99.90;;;;;;5100344;28;20047;-69
2022/09/25 07:55:23;;;;;;;12.13;4.68;;;11.10;99.90;;;;;;5101631;28;20032;-69
2022/09/25 07:57:50;;;;;;;7.07;4.07;;;11.30;99.90;;;;;;5101516;28;20535;-69
2022/09/25 08:00:17;;;;;;;15.15;3.17;;;11.50;99.90;;;;;;5099104;28;20051;-69
2022/09/25 08:02:43;;;;;;;7.85;3.80;;;11.70;99.90;;;;;;5100827;28;20063;-69
2022/09/25 08:05:10;;;;;;;17.17;5.93;;;12.00;99.90;;;;;;5095872;28;20584;-69
2022/09/25 08:07:35;;;;;;;10.80;6.82;;;12.10;99.90;;;;;;5102628;28;20062;-70
2022/09/25 08:10:01;;;;;;;8.55;3.75;;;12.30;99.90;;;;;;5098690;28;20032;-69
2022/09/25 08:12:27;;;;;;;14.95;4.80;;;12.70;99.90;;;;;;5100208;28;20040;-69
2022/09/25 08:14:53;;;;;;;14.38;4.07;;;12.90;99.90;;;;;;5099048;27;20524;-70
2022/09/25 08:17:19;;;;;;;11.38;4.13;;;13.00;99.90;;;;;;5096586;28;20515;-71
2022/09/25 08:19:48;;;;;;;11.65;3.63;;;13.20;99.90;;;;;;5096337;28;20802;-70
2022/09/25 08:22:13;;;;;;;8.52;3.58;;;13.50;99.90;;;;;;5097559;28;20136;-70
2022/09/25 08:24:39;;;;;;;6.95;2.85;;;13.60;99.90;;;;;;5096441;28;20508;-70
2022/09/25 08:27:06;;;;;;;9.65;3.70;;;13.80;99.90;;;;;;5099516;28;20040;-71
2022/09/25 08:29:32;;;;;;;14.07;3.13;;;14.00;99.90;;;;;;5099181;28;20051;-71
2022/09/25 08:32:00;;;;;;;13.85;2.53;;;14.10;99.90;;;;;;5097873;28;20048;-70
2022/09/25 08:34:26;;;;;;;10.40;3.13;;;14.20;99.90;;;;;;5094356;28;20113;-70
2022/09/25 08:36:51;;;;;;;7.57;2.70;;;14.30;99.90;;;;;;5093379;28;20151;-71
2022/09/25 08:39:17;;;;;;;7.63;3.38;;;14.50;99.90;;;;;;5096348;28;20088;-70
2022/09/25 08:41:48;;;;;;;6.05;3.35;;;14.80;99.90;;;;;;5096549;28;20039;-71
2022/09/25 08:44:36;;;;;;;7.53;3.05;;;14.90;99.90;;;;;;5096972;28;20071;-70
2022/09/25 08:50:14;;;;;;;9.05;3.72;;;15.10;99.90;;;;;;5099556;28;20138;-71
2022/09/25 08:52:45;;;;;;;11.52;3.92;;;15.30;99.90;;;;;;5097889;28;20055;-71
2022/09/25 08:58:28;;;;;;;11.18;3.42;;;15.70;99.90;;;;;;5098562;28;20055;-71
2022/09/25 09:01:00;;;;;;;10.20;2.80;;;16.00;99.90;;;;;;5101287;28;20048;-71
2022/09/25 09:03:29;;;;;;;12.55;3.35;;;16.20;99.90;;;;;;5101486;28;20156;-71
2022/09/25 09:06:04;;;;;;;14.02;3.45;;;16.30;99.90;;;;;;5100999;28;20070;-71
2022/09/25 09:08:37;;;;;;;11.20;3.92;;;16.50;99.90;;;;;;5099889;28;20083;-71
2022/09/25 09:11:11;;;;;;;3.17;2.05;;;16.60;99.90;;;;;;5104245;28;20036;-71
2022/09/25 09:14:03;;;;;;;10.80;3.05;;;16.80;99.90;;;;;;5098998;28;20047;-71
2022/09/25 09:16:29;;;;;;;5.85;2.05;;;16.90;99.90;;;;;;5103091;28;20035;-71
2022/09/25 09:18:56;;;;;;;9.98;2.58;;;17.00;99.90;;;;;;5105478;28;20072;-71
2022/09/25 09:21:35;;;;;;;7.25;3.00;;;17.30;99.90;;;;;;5100193;28;20401;-71
2022/09/25 09:24:03;;;;;;;5.80;2.95;;;17.70;99.90;;;;;;5097006;28;20039;-70
2022/09/25 09:26:54;;;;;;;18.45;4.93;;;17.90;99.90;;;;;;5074831;28;20134;-68
2022/09/25 09:29:46;;;;;;;13.27;2.97;;;17.90;99.90;;;;;;5092163;28;20047;-70
2022/09/25 09:32:36;;;;;;;13.93;3.13;;;18.00;99.90;;;;;;5094351;28;20471;-70
2022/09/25 09:35:25;;;;;;;18.13;3.67;;;17.90;99.90;;;;;;5096077;28;20040;-70
2022/09/25 09:38:03;;;;;;;7.63;4.00;;;17.80;99.90;;;;;;5097156;28;20056;-69
2022/09/25 09:40:39;;;;;;;;;;;17.60;99.90;;;;;;5100119;28;20052;-69
2022/09/25 09:43:04;;;;;;;4.43;2.58;;;17.60;99.90;;;;;;5093724;28;19920;-71
2022/09/25 09:46:03;;;;;;;9.50;4.10;;;17.80;99.90;;;;;;5099453;28;20054;-70
2022/09/25 09:48:38;;;;;;;6.72;2.78;;;17.90;99.90;;;;;;5106244;28;20048;-70
2022/09/25 09:51:11;;;;;;;7.53;2.55;;;18.10;99.90;;;;;;5092527;28;20047;-70
2022/09/25 09:53:46;;;;;;;7.70;2.22;;;18.10;99.90;;;;;;5094522;28;20040;-70
2022/09/25 09:56:21;;;;;;;11.20;2.92;;;18.20;99.90;;;;;;5097453;28;20052;-70
2022/09/25 09:59:04;;;;;;;15.57;3.08;;;18.30;99.90;;;;;;5097479;28;20058;-70
2022/09/25 10:01:36;;;;;;;7.15;2.03;;;18.10;99.90;;;;;;5094167;28;20054;-70
2022/09/25 10:04:13;;;;;;;5.22;2.45;;;17.80;99.90;;;;;;5099617;28;20047;-70
2022/09/25 10:07:08;;;;;;;5.45;2.03;;;17.40;99.90;;;;;;5091652;28;20050;-70
2022/09/25 10:09:36;;;;;;;5.00;1.70;;;17.20;99.90;;;;;;5094775;28;20051;-70
2022/09/25 10:12:24;;;;;;;4.75;1.85;;;16.90;99.90;;;;;;5092084;28;20547;-70
2022/09/25 10:14:50;;;;;;;5.20;2.25;;;16.70;99.90;;;;;;5092950;28;20055;-70
2022/09/25 10:17:18;;;;;;;7.75;2.25;;;16.50;99.90;;;;;;5095649;28;20065;-70
2022/09/25 10:19:51;;;;;;;3.17;1.60;;;16.40;99.90;;;;;;5090615;28;20051;-70
2022/09/25 10:22:20;;;;;;;7.50;2.85;;;16.30;99.90;;;;;;5098407;28;20032;-69
2022/09/25 10:25:04;;;;;;;7.55;2.30;;;16.10;99.90;;;;;;5103206;28;20048;-70
2022/09/25 10:27:36;;;;;;;5.97;1.73;;;16.10;99.90;;;;;;5098426;28;20074;-70
2022/09/25 10:30:09;;;;;;;3.22;2.25;;;15.90;99.90;;;;;;5095066;28;20051;-70
2022/09/25 10:33:01;;;;;;;4.38;2.10;;;15.80;99.90;;;;;;5092130;28;20101;-69
2022/09/25 10:35:45;;;;;;;7.07;2.78;;;15.80;99.90;;;;;;5095598;28;20039;-70
2022/09/25 10:38:29;;;;;;;7.82;2.70;;;15.80;99.90;;;;;;5093312;28;20074;-70
2022/09/25 10:41:17;;;;;;;7.57;3.67;;;15.80;99.90;;;;;;5097796;28;20043;-71
2022/09/25 10:43:53;;;;;;;9.10;4.15;;;15.80;99.90;;;;;;5092169;28;20044;-71
2022/09/25 10:52:12;;;;;;;5.85;2.72;;;15.80;99.90;;;;;;5107847;28;20063;-71
2022/09/25 10:54:38;;;;;;;13.25;11.10;;;15.80;99.90;;;;;;5107297;28;20141;-71
2022/09/25 10:57:33;;;;;;;6.85;4.43;;;15.80;99.90;;;;;;5105006;28;20047;-71
2022/09/25 11:00:00;;;;;;;7.63;4.32;;;15.80;99.90;;;;;;5104818;28;20054;-71
2022/09/25 11:02:37;;;;;;;4.67;3.67;;;15.70;99.90;;;;;;5109532;28;20088;-71
2022/09/25 11:05:04;;;;;;;10.05;2.50;;;15.70;99.90;;;;;;5103903;28;20292;-71
2022/09/25 11:07:32;;;;;;;4.13;2.75;;;15.70;99.90;;;;;;5110369;28;20067;-71
2022/09/25 11:09:58;;;;;;;5.97;3.03;;;15.70;99.90;;;;;;5109041;28;20057;-71
2022/09/25 11:12:28;;;;;;;2.88;1.63;;;15.80;99.90;;;;;;5104080;28;20040;-71
2022/09/25 11:14:58;;;;;;;8.80;2.78;;;15.90;99.90;;;;;;5099087;28;20831;-71
2022/09/25 11:17:40;;;;;;;7.30;2.08;;;15.70;99.90;;;;;;5090657;28;20055;-71
2022/09/25 11:20:17;;;;;;;10.25;2.83;;;15.80;99.90;;;;;;5101218;28;20496;-70
2022/09/25 11:23:04;;;;;;;7.10;2.83;;;15.70;99.90;;;;;;5099282;28;20123;-70
2022/09/25 11:25:57;;;;;;;4.03;2.55;;;15.70;99.90;;;;;;5108045;28;20071;-70
2022/09/25 11:28:38;;;;;;;6.07;2.92;;;15.70;99.90;;;;;;5110345;28;20051;-71
2022/09/25 11:31:33;;;;;;;7.13;4.45;;;15.70;99.90;;;;;;5109076;28;20040;-70
2022/09/25 11:34:26;;;;;;;7.72;4.82;;;15.80;99.90;;;;;;5094109;28;20052;-70
2022/09/25 11:37:11;;;;;;;7.65;2.83;;;15.80;99.90;;;;;;5103647;28;20047;-70
2022/09/25 11:42:50;;;;;;;4.03;2.10;;;15.90;99.90;;;;;;5104547;28;20052;-70
2022/09/25 11:45:29;;;;;;;2.35;1.85;;;16.00;99.90;;;;;;5100669;28;20039;-70
2022/09/25 11:48:21;;;;;;;5.45;1.92;;;16.00;99.90;;;;;;5100986;28;20134;-70
2022/09/25 11:50:56;;;;;;;4.85;2.05;;;16.10;99.90;;;;;;5087777;28;20153;-70
2022/09/25 11:54:00;;;;;;;5.50;2.58;;;16.10;99.90;;;;;;5098450;28;20052;-71
2022/09/25 11:56:49;;;;;;;7.47;2.50;;;16.30;99.90;;;;;;5074295;28;20060;-71
2022/09/25 11:59:23;;;;;;;5.72;2.22;;;16.30;99.90;;;;;;5108546;28;20071;-70
2022/09/25 12:02:09;;;;;;;3.88;2.08;;;16.50;99.90;;;;;;5107040;28;20118;-71
2022/09/25 12:04:51;;;;;;;14.68;2.30;;;16.60;99.90;;;;;;5108390;28;20094;-71
2022/09/25 12:07:26;;;;;;;7.07;2.55;;;16.60;99.90;;;;;;5109798;28;20043;-71
2022/09/25 12:10:14;;;;;;;7.22;3.28;;;16.60;99.90;;;;;;5109867;28;20049;-70
2022/09/25 12:12:58;;;;;;;5.82;3.13;;;16.60;99.90;;;;;;5107678;28;20070;-70
2022/09/25 12:15:44;;;;;;;4.30;2.60;;;16.70;99.90;;;;;;5097663;28;20567;-70
2022/09/25 12:18:54;;;;;;;5.97;2.45;;;16.90;99.90;;;;;;5093801;28;20064;-70
2022/09/25 12:21:46;;;;;;;5.32;1.98;;;17.00;99.90;;;;;;5098455;27;20051;-70
2022/09/25 12:24:31;;;;;;;16.15;2.95;;;16.80;99.90;;;;;;5101537;28;20069;-70
2022/09/25 12:27:08;;;;;;;6.72;2.95;;;16.90;99.90;;;;;;5105229;28;20484;-70
2022/09/25 12:29:45;;;;;;;11.57;2.90;;;16.80;99.90;;;;;;5108359;28;20601;-70
2022/09/25 12:32:13;;;;;;;2.50;1.80;;;17.00;99.90;;;;;;5090869;28;20052;-70
2022/09/25 12:35:09;;;;;;;5.72;2.20;;;17.20;99.90;;;;;;5099463;28;20059;-70
2022/09/25 12:37:45;;;;;;;4.72;2.55;;;17.40;99.90;;;;;;5068993;28;20134;-71
2022/09/25 12:40:39;;;;;;;6.20;2.85;;;17.50;99.90;;;;;;5089462;28;20048;-70
2022/09/25 12:43:25;;;;;;;5.20;2.10;;;17.40;99.90;;;;;;5089523;28;20066;-70
2022/09/25 12:46:01;;;;;;;9.32;2.53;;;17.40;99.90;;;;;;5103253;28;20051;-70
2022/09/25 12:48:49;;;;;;;1.77;1.50;;;17.30;99.90;;;;;;5101389;28;20500;-70
2022/09/25 12:51:43;;;;;;;5.18;2.20;;;17.20;99.90;;;;;;5095932;28;20047;-70
2022/09/25 12:54:22;;;;;;;8.13;2.25;;;16.90;99.90;;;;;;5100539;28;20048;-70
2022/09/25 12:57:01;;;;;;;8.80;2.40;;;16.90;99.90;;;;;;5099824;28;20044;-70
2022/09/25 12:59:37;;;;;;;10.57;2.08;;;16.80;99.90;;;;;;5108551;28;20054;-70
2022/09/25 13:02:17;;;;;;;4.22;1.88;;;16.80;99.90;;;;;;5095346;28;20047;-70
2022/09/25 13:05:09;;;;;;;9.25;4.95;;;16.70;99.90;;;;;;5106727;28;20031;-70
2022/09/25 13:08:09;;;;;;;6.30;2.85;;;16.60;99.90;;;;;;5108609;28;20048;-70
2022/09/25 13:10:42;;;;;;;6.30;3.50;;;16.50;99.90;;;;;;5096729;28;20058;-70
2022/09/25 13:13:29;;;;;;;4.55;3.08;;;16.40;99.90;;;;;;5106737;28;20427;-70
2022/09/25 13:15:57;;;;;;;;;;;16.40;99.90;;;;;;5106148;28;20043;-70
2022/09/25 13:18:24;;;;;;;3.63;2.47;;;16.30;99.90;;;;;;5107020;28;20388;-70
2022/09/25 13:20:55;;;;;;;2.07;1.83;;;16.30;99.90;;;;;;5095471;28;20055;-70
2022/09/25 13:23:23;;;;;;;4.53;1.95;;;16.30;99.90;;;;;;5093573;28;20382;-70
2022/09/25 13:26:10;;;;;;;10.48;1.73;;;16.30;99.90;;;;;;5099442;28;20123;-70
2022/09/25 13:28:39;;;;;;;2.33;1.67;;;16.20;99.90;;;;;;5094741;28;20039;-70
2022/09/25 13:31:07;;;;;;;5.22;2.15;;;16.30;99.90;;;;;;5099233;28;20056;-70
2022/09/25 13:33:48;;;;;;;4.80;2.20;;;16.20;99.90;;;;;;5088241;28;20083;-70
2022/09/25 13:36:22;;;;;;;2.53;2.03;;;16.30;99.90;;;;;;5090005;28;20361;-70
2022/09/25 13:42:01;;;;;;;2.88;1.80;;;16.20;99.90;;;;;;5097114;28;20060;-70
2022/09/25 13:44:42;;;;;;;6.05;2.05;;;16.30;99.90;;;;;;5094325;28;20134;-70
2022/09/25 13:47:23;;;;;;;3.17;2.20;;;16.40;99.90;;;;;;5093885;28;20048;-70
2022/09/25 13:50:06;;;;;;;6.10;2.33;;;16.50;99.90;;;;;;5108294;28;20151;-70